sensor_id;sensor_type;location;lat;lon;timestamp;temperature;humidity
11446;DHT22;5779;64.178;15.432;2022-08-25T00:02:24;9.00;99.90
11446;DHT22;5779;64.178;15.432;2022-08-25T00:05:12;9.10;99.90
11446;DHT22;5779;64.178;15.432;2022-08-25T00:07:59;9.20;99.90
11446;DHT22;5779;64.178;15.432;2022-08-25T00:10:46;9.30;99.90
11446;DHT22;5779;64.178;15.432;2022-08-25T00:13:33;9.20;99.90
11446;DHT22;5779;64.178;15.432;2022-08-25T00:16:20;9.10;99.90
11446;DHT22;5779;64.178;15.432;2022-08-25T00:19:10;8.90;99.90
11446;DHT22;5779;64.178;15.432;2022-08-25T00:21:59;8.80;99.90
11446;DHT22;5779;64.178;15.432;2022-08-25T00:24:47;8.80;99.90
11446;DHT22;5779;64.178;15.432;2022-08-25T00:27:33;8.70;99.90
11446;DHT22;5779;64.178;15.432;2022-08-25T00:30:20;8.60;99.90
11446;DHT22;5779;64.178;15.432;2022-08-25T00:33:07;8.50;99.90
11446;DHT22;5779;64.178;15.432;2022-08-25T00:35:53;8.40;99.90
11446;DHT22;5779;64.178;15.432;2022-08-25T00:38:42;8.50;99.90
11446;DHT22;5779;64.178;15.432;2022-08-25T00:41:29;8.50;99.90
11446;DHT22;5779;64.178;15.432;2022-08-25T00:44:16;8.50;99.90
11446;DHT22;5779;64.178;15.432;2022-08-25T00:47:03;8.50;99.90
11446;DHT22;5779;64.178;15.432;2022-08-25T00:49:53;8.50;99.90
11446;DHT22;5779;64.178;15.432;2022-08-25T00:52:42;8.40;99.90
11446;DHT22;5779;64.178;15.432;2022-08-25T00:55:34;8.40;99.90
11446;DHT22;5779;64.178;15.432;2022-08-25T00:58:23;8.50;99.90
11446;DHT22;5779;64.178;15.432;2022-08-25T01:01:11;8.60;99.90
11446;DHT22;5779;64.178;15.432;2022-08-25T01:03:58;8.60;99.90
11446;DHT22;5779;64.178;15.432;2022-08-25T01:06:44;8.50;99.90
11446;DHT22;5779;64.178;15.432;2022-08-25T01:09:32;8.40;99.90
11446;DHT22;5779;64.178;15.432;2022-08-25T01:12:20;8.30;99.90
11446;DHT22;5779;64.178;15.432;2022-08-25T01:15:11;8.20;99.90
11446;DHT22;5779;64.178;15.432;2022-08-25T01:17:58;8.00;99.90
11446;DHT22;5779;64.178;15.432;2022-08-25T01:20:48;8.10;99.90
11446;DHT22;5779;64.178;15.432;2022-08-25T01:23:35;8.10;99.90
11446;DHT22;5779;64.178;15.432;2022-08-25T01:26:25;8.20;99.90
11446;DHT22;5779;64.178;15.432;2022-08-25T01:29:12;8.10;99.90
11446;DHT22;5779;64.178;15.432;2022-08-25T01:32:10;8.20;99.90
11446;DHT22;5779;64.178;15.432;2022-08-25T01:34:57;8.20;99.90
11446;DHT22;5779;64.178;15.432;2022-08-25T01:37:45;8.20;99.90
11446;DHT22;5779;64.178;15.432;2022-08-25T01:40:33;8.30;99.90
11446;DHT22;5779;64.178;15.432;2022-08-25T01:43:25;8.40;99.90
11446;DHT22;5779;64.178;15.432;2022-08-25T01:46:15;8.60;99.90
11446;DHT22;5779;64.178;15.432;2022-08-25T01:49:03;8.70;99.90
11446;DHT22;5779;64.178;15.432;2022-08-25T01:51:52;8.90;99.90
11446;DHT22;5779;64.178;15.432;2022-08-25T01:54:42;9.00;99.90
11446;DHT22;5779;64.178;15.432;2022-08-25T01:57:29;9.10;99.90
11446;DHT22;5779;64.178;15.432;2022-08-25T02:00:17;8.90;99.90
11446;DHT22;5779;64.178;15.432;2022-08-25T02:03:04;8.70;99.90
11446;DHT22;5779;64.178;15.432;2022-08-25T02:05:51;8.30;99.90
11446;DHT22;5779;64.178;15.432;2022-08-25T02:08:39;8.20;99.90
11446;DHT22;5779;64.178;15.432;2022-08-25T02:11:27;8.20;99.90
11446;DHT22;5779;64.178;15.432;2022-08-25T02:14:15;8.20;99.90
11446;DHT22;5779;64.178;15.432;2022-08-25T02:17:03;8.10;99.90
11446;DHT22;5779;64.178;15.432;2022-08-25T02:19:50;7.90;99.90
11446;DHT22;5779;64.178;15.432;2022-08-25T02:22:36;7.90;99.90
11446;DHT22;5779;64.178;15.432;2022-08-25T02:25:23;7.80;99.90
11446;DHT22;5779;64.178;15.432;2022-08-25T02:28:11;7.90;99.90
11446;DHT22;5779;64.178;15.432;2022-08-25T02:30:57;7.90;99.90
11446;DHT22;5779;64.178;15.432;2022-08-25T02:33:45;8.00;99.90
11446;DHT22;5779;64.178;15.432;2022-08-25T02:36:31;8.00;99.90
11446;DHT22;5779;64.178;15.432;2022-08-25T02:39:18;7.80;99.90
11446;DHT22;5779;64.178;15.432;2022-08-25T02:42:04;7.80;99.90
11446;DHT22;5779;64.178;15.432;2022-08-25T02:44:53;7.90;99.90
11446;DHT22;5779;64.178;15.432;2022-08-25T02:47:39;7.80;99.90
11446;DHT22;5779;64.178;15.432;2022-08-25T02:50:26;7.70;99.90
11446;DHT22;5779;64.178;15.432;2022-08-25T02:53:13;7.70;99.90
11446;DHT22;5779;64.178;15.432;2022-08-25T02:55:59;7.80;99.90
11446;DHT22;5779;64.178;15.432;2022-08-25T02:58:46;7.80;99.90
11446;DHT22;5779;64.178;15.432;2022-08-25T03:01:35;7.80;99.90
11446;DHT22;5779;64.178;15.432;2022-08-25T03:04:21;7.70;99.90
11446;DHT22;5779;64.178;15.432;2022-08-25T03:07:08;7.60;99.90
11446;DHT22;5779;64.178;15.432;2022-08-25T03:09:56;7.50;99.90
11446;DHT22;5779;64.178;15.432;2022-08-25T03:12:42;7.60;99.90
11446;DHT22;5779;64.178;15.432;2022-08-25T03:15:29;7.80;99.90
11446;DHT22;5779;64.178;15.432;2022-08-25T03:18:17;7.80;99.90
11446;DHT22;5779;64.178;15.432;2022-08-25T03:21:04;8.00;99.90
11446;DHT22;5779;64.178;15.432;2022-08-25T03:23:50;8.10;99.90
11446;DHT22;5779;64.178;15.432;2022-08-25T03:26:38;7.80;99.90
11446;DHT22;5779;64.178;15.432;2022-08-25T03:29:39;7.60;99.90
11446;DHT22;5779;64.178;15.432;2022-08-25T03:32:27;7.60;99.90
11446;DHT22;5779;64.178;15.432;2022-08-25T03:35:16;7.60;99.90
11446;DHT22;5779;64.178;15.432;2022-08-25T03:38:03;7.60;99.90
11446;DHT22;5779;64.178;15.432;2022-08-25T03:40:51;7.60;99.90
11446;DHT22;5779;64.178;15.432;2022-08-25T03:43:37;7.60;99.90
11446;DHT22;5779;64.178;15.432;2022-08-25T03:46:26;7.70;99.90
11446;DHT22;5779;64.178;15.432;2022-08-25T03:49:15;7.80;99.90
11446;DHT22;5779;64.178;15.432;2022-08-25T03:52:03;7.90;99.90
11446;DHT22;5779;64.178;15.432;2022-08-25T03:54:50;7.90;99.90
11446;DHT22;5779;64.178;15.432;2022-08-25T03:57:37;7.70;99.90
11446;DHT22;5779;64.178;15.432;2022-08-25T04:00:23;7.70;99.90
11446;DHT22;5779;64.178;15.432;2022-08-25T04:03:10;7.70;99.90
11446;DHT22;5779;64.178;15.432;2022-08-25T04:06:00;7.80;99.90
11446;DHT22;5779;64.178;15.432;2022-08-25T04:08:48;8.00;99.90
11446;DHT22;5779;64.178;15.432;2022-08-25T04:11:37;8.10;99.90
11446;DHT22;5779;64.178;15.432;2022-08-25T04:14:24;8.20;99.90
11446;DHT22;5779;64.178;15.432;2022-08-25T04:17:10;8.30;99.90
11446;DHT22;5779;64.178;15.432;2022-08-25T04:19:58;8.50;99.90
11446;DHT22;5779;64.178;15.432;2022-08-25T04:22:44;8.40;99.90
11446;DHT22;5779;64.178;15.432;2022-08-25T04:25:32;8.60;99.90
11446;DHT22;5779;64.178;15.432;2022-08-25T04:28:19;8.80;99.90
11446;DHT22;5779;64.178;15.432;2022-08-25T04:31:06;8.90;99.90
11446;DHT22;5779;64.178;15.432;2022-08-25T04:33:53;9.00;99.90
11446;DHT22;5779;64.178;15.432;2022-08-25T04:36:40;9.10;99.90
11446;DHT22;5779;64.178;15.432;2022-08-25T04:39:26;9.40;99.90
11446;DHT22;5779;64.178;15.432;2022-08-25T04:42:14;9.50;99.90
11446;DHT22;5779;64.178;15.432;2022-08-25T04:45:01;9.70;99.90
11446;DHT22;5779;64.178;15.432;2022-08-25T04:47:49;9.80;99.90
11446;DHT22;5779;64.178;15.432;2022-08-25T04:50:37;9.90;99.90
11446;DHT22;5779;64.178;15.432;2022-08-25T04:53:24;10.10;99.90
11446;DHT22;5779;64.178;15.432;2022-08-25T04:56:12;10.20;99.90
11446;DHT22;5779;64.178;15.432;2022-08-25T04:59:04;10.40;99.90
11446;DHT22;5779;64.178;15.432;2022-08-25T05:01:51;10.50;99.90
11446;DHT22;5779;64.178;15.432;2022-08-25T05:04:37;10.50;99.90
11446;DHT22;5779;64.178;15.432;2022-08-25T05:07:24;10.70;99.90
11446;DHT22;5779;64.178;15.432;2022-08-25T05:10:10;10.80;99.90
11446;DHT22;5779;64.178;15.432;2022-08-25T05:12:56;10.80;99.90
11446;DHT22;5779;64.178;15.432;2022-08-25T05:15:50;11.00;99.90
11446;DHT22;5779;64.178;15.432;2022-08-25T05:18:37;11.10;99.90
11446;DHT22;5779;64.178;15.432;2022-08-25T05:21:26;11.30;99.90
11446;DHT22;5779;64.178;15.432;2022-08-25T05:24:13;11.50;99.90
11446;DHT22;5779;64.178;15.432;2022-08-25T05:27:00;11.40;99.90
11446;DHT22;5779;64.178;15.432;2022-08-25T05:29:47;11.50;99.90
11446;DHT22;5779;64.178;15.432;2022-08-25T05:32:35;11.60;99.90
11446;DHT22;5779;64.178;15.432;2022-08-25T05:35:22;11.70;99.90
11446;DHT22;5779;64.178;15.432;2022-08-25T05:38:08;11.80;99.90
11446;DHT22;5779;64.178;15.432;2022-08-25T05:40:56;11.80;99.90
11446;DHT22;5779;64.178;15.432;2022-08-25T05:43:44;11.90;99.90
11446;DHT22;5779;64.178;15.432;2022-08-25T05:46:32;12.00;99.90
11446;DHT22;5779;64.178;15.432;2022-08-25T05:49:20;12.10;99.90
11446;DHT22;5779;64.178;15.432;2022-08-25T05:52:06;12.10;99.90
11446;DHT22;5779;64.178;15.432;2022-08-25T05:54:53;12.20;99.90
11446;DHT22;5779;64.178;15.432;2022-08-25T05:57:40;12.30;99.90
11446;DHT22;5779;64.178;15.432;2022-08-25T06:00:27;12.40;99.90
11446;DHT22;5779;64.178;15.432;2022-08-25T06:03:13;12.50;99.90
11446;DHT22;5779;64.178;15.432;2022-08-25T06:06:06;12.60;99.90
11446;DHT22;5779;64.178;15.432;2022-08-25T06:08:52;12.60;99.90
11446;DHT22;5779;64.178;15.432;2022-08-25T06:11:39;12.60;99.90
11446;DHT22;5779;64.178;15.432;2022-08-25T06:14:27;12.70;99.90
11446;DHT22;5779;64.178;15.432;2022-08-25T06:17:13;12.80;99.90
11446;DHT22;5779;64.178;15.432;2022-08-25T06:20:01;12.70;99.90
11446;DHT22;5779;64.178;15.432;2022-08-25T06:22:51;12.70;99.90
11446;DHT22;5779;64.178;15.432;2022-08-25T06:25:37;12.60;99.90
11446;DHT22;5779;64.178;15.432;2022-08-25T06:28:24;12.70;99.90
11446;DHT22;5779;64.178;15.432;2022-08-25T06:31:10;12.80;99.90
11446;DHT22;5779;64.178;15.432;2022-08-25T06:33:57;12.70;99.90
11446;DHT22;5779;64.178;15.432;2022-08-25T06:36:43;12.70;99.90
11446;DHT22;5779;64.178;15.432;2022-08-25T06:39:32;12.70;99.90
11446;DHT22;5779;64.178;15.432;2022-08-25T06:42:18;12.70;99.90
11446;DHT22;5779;64.178;15.432;2022-08-25T06:45:06;12.70;99.90
11446;DHT22;5779;64.178;15.432;2022-08-25T06:47:53;12.90;99.90
11446;DHT22;5779;64.178;15.432;2022-08-25T06:50:40;12.90;99.90
11446;DHT22;5779;64.178;15.432;2022-08-25T06:53:26;13.10;99.90
11446;DHT22;5779;64.178;15.432;2022-08-25T06:56:14;13.30;99.90
11446;DHT22;5779;64.178;15.432;2022-08-25T06:59:07;13.40;99.90
11446;DHT22;5779;64.178;15.432;2022-08-25T07:01:54;13.40;99.90
11446;DHT22;5779;64.178;15.432;2022-08-25T07:04:41;13.40;99.90
11446;DHT22;5779;64.178;15.432;2022-08-25T07:07:27;13.30;99.90
11446;DHT22;5779;64.178;15.432;2022-08-25T07:10:14;13.40;99.90
11446;DHT22;5779;64.178;15.432;2022-08-25T07:13:01;13.50;99.90
11446;DHT22;5779;64.178;15.432;2022-08-25T07:15:52;13.70;99.90
11446;DHT22;5779;64.178;15.432;2022-08-25T07:18:40;13.80;99.90
11446;DHT22;5779;64.178;15.432;2022-08-25T07:21:28;14.00;99.90
11446;DHT22;5779;64.178;15.432;2022-08-25T07:24:14;14.20;99.90
11446;DHT22;5779;64.178;15.432;2022-08-25T07:27:01;14.40;99.90
11446;DHT22;5779;64.178;15.432;2022-08-25T07:29:49;14.50;99.90
11446;DHT22;5779;64.178;15.432;2022-08-25T07:32:37;14.60;99.90
11446;DHT22;5779;64.178;15.432;2022-08-25T07:35:23;14.40;99.90
11446;DHT22;5779;64.178;15.432;2022-08-25T07:38:11;14.60;99.90
11446;DHT22;5779;64.178;15.432;2022-08-25T07:41:01;14.70;99.90
11446;DHT22;5779;64.178;15.432;2022-08-25T07:43:47;14.90;99.90
11446;DHT22;5779;64.178;15.432;2022-08-25T07:46:35;14.90;99.90
11446;DHT22;5779;64.178;15.432;2022-08-25T07:49:23;15.00;99.90
11446;DHT22;5779;64.178;15.432;2022-08-25T07:52:10;15.20;99.90
11446;DHT22;5779;64.178;15.432;2022-08-25T07:54:56;15.40;99.90
11446;DHT22;5779;64.178;15.432;2022-08-25T07:57:42;15.50;99.90
11446;DHT22;5779;64.178;15.432;2022-08-25T08:00:29;15.80;99.90
11446;DHT22;5779;64.178;15.432;2022-08-25T08:03:18;15.70;99.90
11446;DHT22;5779;64.178;15.432;2022-08-25T08:06:07;15.70;99.90
11446;DHT22;5779;64.178;15.432;2022-08-25T08:08:54;15.80;99.90
11446;DHT22;5779;64.178;15.432;2022-08-25T08:11:41;15.90;99.90
11446;DHT22;5779;64.178;15.432;2022-08-25T08:14:28;15.90;99.90
11446;DHT22;5779;64.178;15.432;2022-08-25T08:17:15;16.10;99.90
11446;DHT22;5779;64.178;15.432;2022-08-25T08:20:04;16.20;99.90
11446;DHT22;5779;64.178;15.432;2022-08-25T08:22:53;16.30;99.90
11446;DHT22;5779;64.178;15.432;2022-08-25T08:25:40;16.50;99.90
11446;DHT22;5779;64.178;15.432;2022-08-25T08:28:26;16.60;99.90
11446;DHT22;5779;64.178;15.432;2022-08-25T08:31:13;16.70;99.90
11446;DHT22;5779;64.178;15.432;2022-08-25T08:33:59;16.70;99.90
11446;DHT22;5779;64.178;15.432;2022-08-25T08:36:47;16.80;99.90
11446;DHT22;5779;64.178;15.432;2022-08-25T08:39:35;16.80;99.90
11446;DHT22;5779;64.178;15.432;2022-08-25T08:42:42;17.00;99.90
11446;DHT22;5779;64.178;15.432;2022-08-25T08:45:34;17.20;99.90
11446;DHT22;5779;64.178;15.432;2022-08-25T08:48:42;17.10;99.90
11446;DHT22;5779;64.178;15.432;2022-08-25T08:51:32;17.00;99.90
11446;DHT22;5779;64.178;15.432;2022-08-25T08:54:24;17.20;99.90
11446;DHT22;5779;64.178;15.432;2022-08-25T08:57:14;17.30;99.90
11446;DHT22;5779;64.178;15.432;2022-08-25T09:00:05;17.50;99.90
11446;DHT22;5779;64.178;15.432;2022-08-25T09:02:57;17.70;99.90
11446;DHT22;5779;64.178;15.432;2022-08-25T09:05:48;17.90;99.90
11446;DHT22;5779;64.178;15.432;2022-08-25T09:08:36;18.00;99.90
11446;DHT22;5779;64.178;15.432;2022-08-25T09:11:42;18.20;99.90
11446;DHT22;5779;64.178;15.432;2022-08-25T09:14:41;18.30;99.90
11446;DHT22;5779;64.178;15.432;2022-08-25T09:17:46;18.20;99.90
11446;DHT22;5779;64.178;15.432;2022-08-25T09:20:45;18.10;99.90
11446;DHT22;5779;64.178;15.432;2022-08-25T09:23:43;18.00;99.90
11446;DHT22;5779;64.178;15.432;2022-08-25T09:26:38;18.50;99.90
11446;DHT22;5779;64.178;15.432;2022-08-25T09:29:38;18.90;99.90
11446;DHT22;5779;64.178;15.432;2022-08-25T09:32:30;18.80;99.90
11446;DHT22;5779;64.178;15.432;2022-08-25T09:35:20;18.80;99.90
11446;DHT22;5779;64.178;15.432;2022-08-25T09:38:09;18.80;99.90
11446;DHT22;5779;64.178;15.432;2022-08-25T09:40:58;18.70;99.90
11446;DHT22;5779;64.178;15.432;2022-08-25T09:43:53;18.50;99.90
11446;DHT22;5779;64.178;15.432;2022-08-25T09:46:39;18.20;99.90
11446;DHT22;5779;64.178;15.432;2022-08-25T09:49:31;18.60;99.90
11446;DHT22;5779;64.178;15.432;2022-08-25T09:52:25;18.60;99.90
11446;DHT22;5779;64.178;15.432;2022-08-25T09:55:30;18.40;99.90
11446;DHT22;5779;64.178;15.432;2022-08-25T09:58:20;18.30;99.90
11446;DHT22;5779;64.178;15.432;2022-08-25T10:01:16;18.30;99.90
11446;DHT22;5779;64.178;15.432;2022-08-25T10:04:04;18.40;99.90
11446;DHT22;5779;64.178;15.432;2022-08-25T10:06:51;18.50;99.90
11446;DHT22;5779;64.178;15.432;2022-08-25T10:09:40;18.70;99.90
11446;DHT22;5779;64.178;15.432;2022-08-25T10:12:30;19.20;99.90
11446;DHT22;5779;64.178;15.432;2022-08-25T10:15:20;19.40;99.90
11446;DHT22;5779;64.178;15.432;2022-08-25T10:18:21;19.20;99.90
11446;DHT22;5779;64.178;15.432;2022-08-25T10:21:12;19.30;99.90
11446;DHT22;5779;64.178;15.432;2022-08-25T10:24:00;19.60;99.90
11446;DHT22;5779;64.178;15.432;2022-08-25T10:26:56;19.90;99.90
11446;DHT22;5779;64.178;15.432;2022-08-25T10:30:03;20.00;99.90
11446;DHT22;5779;64.178;15.432;2022-08-25T10:32:59;19.60;99.90
11446;DHT22;5779;64.178;15.432;2022-08-25T10:35:57;19.60;99.90
11446;DHT22;5779;64.178;15.432;2022-08-25T10:38:46;19.80;99.90
11446;DHT22;5779;64.178;15.432;2022-08-25T10:41:43;20.00;99.90
11446;DHT22;5779;64.178;15.432;2022-08-25T10:44:34;20.00;99.90
11446;DHT22;5779;64.178;15.432;2022-08-25T10:48:09;19.90;99.90
11446;DHT22;5779;64.178;15.432;2022-08-25T10:51:02;20.10;99.90
11446;DHT22;5779;64.178;15.432;2022-08-25T10:53:58;20.10;99.90
11446;DHT22;5779;64.178;15.432;2022-08-25T10:56:56;20.10;99.90
11446;DHT22;5779;64.178;15.432;2022-08-25T10:59:57;20.40;99.90
11446;DHT22;5779;64.178;15.432;2022-08-25T11:06:02;20.30;99.90
11446;DHT22;5779;64.178;15.432;2022-08-25T11:08:52;20.70;99.90
11446;DHT22;5779;64.178;15.432;2022-08-25T11:11:45;21.10;99.90
11446;DHT22;5779;64.178;15.432;2022-08-25T11:14:37;21.10;99.90
11446;DHT22;5779;64.178;15.432;2022-08-25T11:17:30;21.00;99.90
11446;DHT22;5779;64.178;15.432;2022-08-25T11:20:23;21.10;99.90
11446;DHT22;5779;64.178;15.432;2022-08-25T11:23:19;21.50;99.90
11446;DHT22;5779;64.178;15.432;2022-08-25T11:26:09;21.80;99.90
11446;DHT22;5779;64.178;15.432;2022-08-25T11:29:02;22.00;99.90
11446;DHT22;5779;64.178;15.432;2022-08-25T11:31:51;22.00;99.90
11446;DHT22;5779;64.178;15.432;2022-08-25T11:34:39;21.90;99.90
11446;DHT22;5779;64.178;15.432;2022-08-25T11:37:27;22.00;99.90
11446;DHT22;5779;64.178;15.432;2022-08-25T11:40:51;22.20;99.90
11446;DHT22;5779;64.178;15.432;2022-08-25T11:43:52;22.10;99.90
11446;DHT22;5779;64.178;15.432;2022-08-25T11:47:02;22.30;99.90
11446;DHT22;5779;64.178;15.432;2022-08-25T11:49:59;22.30;99.90
11446;DHT22;5779;64.178;15.432;2022-08-25T11:52:50;22.30;99.90
11446;DHT22;5779;64.178;15.432;2022-08-25T11:55:48;22.40;99.90
11446;DHT22;5779;64.178;15.432;2022-08-25T11:58:43;22.40;99.90
11446;DHT22;5779;64.178;15.432;2022-08-25T12:04:53;22.80;99.90
11446;DHT22;5779;64.178;15.432;2022-08-25T12:08:01;22.90;99.90
11446;DHT22;5779;64.178;15.432;2022-08-25T12:11:06;23.10;99.90
11446;DHT22;5779;64.178;15.432;2022-08-25T12:14:09;23.20;99.90
11446;DHT22;5779;64.178;15.432;2022-08-25T12:17:10;23.50;99.90
11446;DHT22;5779;64.178;15.432;2022-08-25T12:20:04;23.60;99.90
11446;DHT22;5779;64.178;15.432;2022-08-25T12:22:56;23.80;99.90
11446;DHT22;5779;64.178;15.432;2022-08-25T12:25:49;23.60;99.90
11446;DHT22;5779;64.178;15.432;2022-08-25T12:28:50;23.50;99.90
11446;DHT22;5779;64.178;15.432;2022-08-25T12:32:01;23.40;99.90
11446;DHT22;5779;64.178;15.432;2022-08-25T12:38:10;23.40;99.90
11446;DHT22;5779;64.178;15.432;2022-08-25T12:41:03;23.40;99.90
11446;DHT22;5779;64.178;15.432;2022-08-25T12:43:53;23.50;99.90
11446;DHT22;5779;64.178;15.432;2022-08-25T12:47:11;23.70;99.90
11446;DHT22;5779;64.178;15.432;2022-08-25T12:50:24;23.80;99.90
11446;DHT22;5779;64.178;15.432;2022-08-25T12:53:16;23.50;99.90
11446;DHT22;5779;64.178;15.432;2022-08-25T12:56:06;23.40;99.90
11446;DHT22;5779;64.178;15.432;2022-08-25T12:59:04;23.80;99.90
11446;DHT22;5779;64.178;15.432;2022-08-25T13:05:54;24.20;99.90
11446;DHT22;5779;64.178;15.432;2022-08-25T13:09:15;24.50;99.90
11446;DHT22;5779;64.178;15.432;2022-08-25T13:12:10;24.40;99.90
11446;DHT22;5779;64.178;15.432;2022-08-25T13:14:59;24.60;99.90
11446;DHT22;5779;64.178;15.432;2022-08-25T13:17:45;24.70;99.90
11446;DHT22;5779;64.178;15.432;2022-08-25T13:20:32;24.80;99.90
11446;DHT22;5779;64.178;15.432;2022-08-25T13:23:23;25.00;99.90
11446;DHT22;5779;64.178;15.432;2022-08-25T13:26:13;24.90;99.90
11446;DHT22;5779;64.178;15.432;2022-08-25T13:29:02;24.70;99.90
11446;DHT22;5779;64.178;15.432;2022-08-25T13:31:59;24.70;99.90
11446;DHT22;5779;64.178;15.432;2022-08-25T13:34:46;25.00;99.90
11446;DHT22;5779;64.178;15.432;2022-08-25T13:37:33;24.70;99.90
11446;DHT22;5779;64.178;15.432;2022-08-25T13:40:25;24.50;99.90
11446;DHT22;5779;64.178;15.432;2022-08-25T13:43:13;24.70;99.90
11446;DHT22;5779;64.178;15.432;2022-08-25T13:46:00;25.20;99.90
11446;DHT22;5779;64.178;15.432;2022-08-25T13:48:47;25.20;99.90
11446;DHT22;5779;64.178;15.432;2022-08-25T13:51:34;24.80;99.90
11446;DHT22;5779;64.178;15.432;2022-08-25T13:54:24;25.00;99.90
11446;DHT22;5779;64.178;15.432;2022-08-25T13:57:22;25.00;99.90
11446;DHT22;5779;64.178;15.432;2022-08-25T14:00:10;25.40;99.90
11446;DHT22;5779;64.178;15.432;2022-08-25T14:02:57;25.50;99.90
11446;DHT22;5779;64.178;15.432;2022-08-25T14:05:44;25.90;99.90
11446;DHT22;5779;64.178;15.432;2022-08-25T14:08:32;26.10;99.90
11446;DHT22;5779;64.178;15.432;2022-08-25T14:11:31;26.20;99.90
11446;DHT22;5779;64.178;15.432;2022-08-25T14:14:33;26.00;99.90
11446;DHT22;5779;64.178;15.432;2022-08-25T14:17:20;26.00;99.90
11446;DHT22;5779;64.178;15.432;2022-08-25T14:20:18;26.00;99.90
11446;DHT22;5779;64.178;15.432;2022-08-25T14:23:10;26.00;99.90
11446;DHT22;5779;64.178;15.432;2022-08-25T14:25:57;26.10;99.90
11446;DHT22;5779;64.178;15.432;2022-08-25T14:28:44;26.20;99.90
11446;DHT22;5779;64.178;15.432;2022-08-25T14:31:35;26.10;99.90
11446;DHT22;5779;64.178;15.432;2022-08-25T14:34:25;26.10;99.90
11446;DHT22;5779;64.178;15.432;2022-08-25T14:37:15;26.00;99.90
11446;DHT22;5779;64.178;15.432;2022-08-25T14:40:03;25.80;99.90
11446;DHT22;5779;64.178;15.432;2022-08-25T14:42:50;25.40;99.90
11446;DHT22;5779;64.178;15.432;2022-08-25T14:45:39;24.60;99.90
11446;DHT22;5779;64.178;15.432;2022-08-25T14:48:31;24.70;99.90
11446;DHT22;5779;64.178;15.432;2022-08-25T14:51:18;24.30;99.90
11446;DHT22;5779;64.178;15.432;2022-08-25T14:54:08;24.20;99.90
11446;DHT22;5779;64.178;15.432;2022-08-25T14:56:55;24.30;99.90
11446;DHT22;5779;64.178;15.432;2022-08-25T14:59:42;24.50;99.90
11446;DHT22;5779;64.178;15.432;2022-08-25T15:02:30;24.70;99.90
11446;DHT22;5779;64.178;15.432;2022-08-25T15:05:22;24.70;99.90
11446;DHT22;5779;64.178;15.432;2022-08-25T15:08:11;25.20;99.90
11446;DHT22;5779;64.178;15.432;2022-08-25T15:11:15;25.70;99.90
11446;DHT22;5779;64.178;15.432;2022-08-25T15:14:02;25.90;99.90
11446;DHT22;5779;64.178;15.432;2022-08-25T15:16:52;25.90;99.90
11446;DHT22;5779;64.178;15.432;2022-08-25T15:19:39;25.70;99.90
11446;DHT22;5779;64.178;15.432;2022-08-25T15:22:28;25.90;99.90
11446;DHT22;5779;64.178;15.432;2022-08-25T15:25:15;25.70;99.90
11446;DHT22;5779;64.178;15.432;2022-08-25T15:28:03;26.00;99.90
11446;DHT22;5779;64.178;15.432;2022-08-25T15:30:49;25.90;99.90
11446;DHT22;5779;64.178;15.432;2022-08-25T15:33:41;25.50;99.90
11446;DHT22;5779;64.178;15.432;2022-08-25T15:36:35;25.40;99.90
11446;DHT22;5779;64.178;15.432;2022-08-25T15:39:23;25.50;99.90
11446;DHT22;5779;64.178;15.432;2022-08-25T15:42:10;25.50;99.90
11446;DHT22;5779;64.178;15.432;2022-08-25T15:44:58;25.50;99.90
11446;DHT22;5779;64.178;15.432;2022-08-25T15:47:45;25.70;99.90
11446;DHT22;5779;64.178;15.432;2022-08-25T15:50:32;25.90;99.90
11446;DHT22;5779;64.178;15.432;2022-08-25T15:53:18;26.10;99.90
11446;DHT22;5779;64.178;15.432;2022-08-25T15:56:07;26.40;99.90
11446;DHT22;5779;64.178;15.432;2022-08-25T15:58:54;26.70;99.90
11446;DHT22;5779;64.178;15.432;2022-08-25T16:01:41;27.00;99.90
11446;DHT22;5779;64.178;15.432;2022-08-25T16:04:28;27.20;99.90
11446;DHT22;5779;64.178;15.432;2022-08-25T16:07:15;27.20;99.90
11446;DHT22;5779;64.178;15.432;2022-08-25T16:10:03;27.30;99.90
11446;DHT22;5779;64.178;15.432;2022-08-25T16:12:51;27.20;99.90
11446;DHT22;5779;64.178;15.432;2022-08-25T16:15:38;27.30;99.90
11446;DHT22;5779;64.178;15.432;2022-08-25T16:18:24;27.40;99.90
11446;DHT22;5779;64.178;15.432;2022-08-25T16:21:14;27.40;99.90
11446;DHT22;5779;64.178;15.432;2022-08-25T16:24:03;27.50;99.90
11446;DHT22;5779;64.178;15.432;2022-08-25T16:26:50;27.70;99.90
11446;DHT22;5779;64.178;15.432;2022-08-25T16:29:40;27.40;99.90
11446;DHT22;5779;64.178;15.432;2022-08-25T16:32:27;27.40;99.90
11446;DHT22;5779;64.178;15.432;2022-08-25T16:35:14;27.50;99.90
11446;DHT22;5779;64.178;15.432;2022-08-25T16:38:01;27.70;99.90
11446;DHT22;5779;64.178;15.432;2022-08-25T16:40:48;27.70;99.90
11446;DHT22;5779;64.178;15.432;2022-08-25T16:43:36;27.40;99.90
11446;DHT22;5779;64.178;15.432;2022-08-25T16:46:24;27.00;99.90
11446;DHT22;5779;64.178;15.432;2022-08-25T16:49:11;26.70;99.90
11446;DHT22;5779;64.178;15.432;2022-08-25T16:51:58;26.20;99.90
11446;DHT22;5779;64.178;15.432;2022-08-25T16:54:46;25.60;99.90
11446;DHT22;5779;64.178;15.432;2022-08-25T16:57:52;25.40;99.90
11446;DHT22;5779;64.178;15.432;2022-08-25T17:00:39;25.20;99.90
11446;DHT22;5779;64.178;15.432;2022-08-25T17:03:27;25.30;99.90
11446;DHT22;5779;64.178;15.432;2022-08-25T17:06:13;25.30;99.90
11446;DHT22;5779;64.178;15.432;2022-08-25T17:09:00;25.50;99.90
11446;DHT22;5779;64.178;15.432;2022-08-25T17:11:47;25.50;99.90
11446;DHT22;5779;64.178;15.432;2022-08-25T17:14:36;25.50;99.90
11446;DHT22;5779;64.178;15.432;2022-08-25T17:17:23;25.80;99.90
11446;DHT22;5779;64.178;15.432;2022-08-25T17:20:11;26.00;99.90
11446;DHT22;5779;64.178;15.432;2022-08-25T17:22:58;26.00;99.90
11446;DHT22;5779;64.178;15.432;2022-08-25T17:25:45;26.10;99.90
11446;DHT22;5779;64.178;15.432;2022-08-25T17:28:32;26.00;99.90
11446;DHT22;5779;64.178;15.432;2022-08-25T17:31:19;25.90;99.90
11446;DHT22;5779;64.178;15.432;2022-08-25T17:34:07;25.90;99.90
11446;DHT22;5779;64.178;15.432;2022-08-25T17:36:57;25.90;99.90
11446;DHT22;5779;64.178;15.432;2022-08-25T17:39:44;26.10;99.90
11446;DHT22;5779;64.178;15.432;2022-08-25T17:42:30;26.10;99.90
11446;DHT22;5779;64.178;15.432;2022-08-25T17:45:18;25.90;99.90
11446;DHT22;5779;64.178;15.432;2022-08-25T17:48:05;25.00;99.90
11446;DHT22;5779;64.178;15.432;2022-08-25T17:50:52;24.30;99.90
11446;DHT22;5779;64.178;15.432;2022-08-25T17:53:41;23.70;99.90
11446;DHT22;5779;64.178;15.432;2022-08-25T17:56:28;23.60;99.90
11446;DHT22;5779;64.178;15.432;2022-08-25T17:59:16;23.50;99.90
11446;DHT22;5779;64.178;15.432;2022-08-25T18:02:04;23.20;99.90
11446;DHT22;5779;64.178;15.432;2022-08-25T18:04:51;22.70;99.90
11446;DHT22;5779;64.178;15.432;2022-08-25T18:07:37;22.60;99.90
11446;DHT22;5779;64.178;15.432;2022-08-25T18:10:26;22.70;99.90
11446;DHT22;5779;64.178;15.432;2022-08-25T18:13:14;22.70;99.90